Warning: Javascript must be enabled to use all the features on this page!


Page Loading - Please Wait...

* We've detected you're using a mobile device. Find our Next Generation Station Page here.
Click to hideNews Bulletins

Peak Streamflow for the Nation

USGS 02383520 COOSAWATTEE RIVER AT PINE CHAPEL, GA

Gordon County, Georgia
Hydrologic Unit Code 03150102
Latitude  34°34'34.5", Longitude  84°51'37.1" NAD83
Drainage area 847  square miles
Gage datum 616.12 feet above NAVD88
Output formats
Table
Graph
Tab-separated file
peakfq (watstore) format
Reselect output format
Water
Year
Date Gage
Height
(feet)
Stream-
flow
(cfs)
1938 1938-04-08 30.001 34,000
1939 1939-02-16 20.701 9,680
1940 1940-07-13   6,5602
1941 1941-07-06 12.801 5,290
1942 1942-02-18 24.201 13,500
1943 1942-12-30 27.701 23,300
1944 1944-03-30 25.501 15,900
1945 1945-02-14 19.501 9,750
1946 1946-02-11 29.601 32,000
1947 1947-01-21   19,4001
1948 1948-02-13 23.601 11,300
1949 1948-11-29 28.301 26,700
1950 1950-03-14 28.301 26,200
1951 1951-03-30 30.801 40,200
1952 1952-03-12 23.501 12,300
1953 1953-01-10 19.501 9,310
1954 1954-01-17 29.901 35,200
1955 1955-02-08 24.201 13,800
1956 1956-04-17 21.801 10,800
1957 1957-04-06 27.601 24,600
1958 1957-11-19 19.401 7,980
1959 1959-02-14 15.901 7,100
1960 1960-03-04 20.501 9,840
1961 1961-02-26 26.101 18,200
1962 1961-12-13 28.251 28,200
1963 1963-03-07 26.791 21,600
1964 1964-03-26   32,000
1965 1965-03-27 22.901 10,600
1966 1966-03-05 26.611 18,400
1967 1967-08-25 19.761 8,820
1968 1968-01-11   11,500
1969 1969-02-03   15,000
1970 1970-03-21 18.461 8,680
1971 1971-01-25   9,360
1972 1972-01-12 23.391 10,900
1973 1973-05-29 27.111 23,200
1974 1974-01-01   11,200
1975 1975-03-14   7,9102,6
1976 1976-04-01   14,7006
1977 1977-03-30   17,2006
1978 1978-01-26 20.001 9,7706
1979 1979-03-04 27.001 24,9006
1980 1980-03-09 22.801 11,8006
1981 1981-03-31 14.701 6,1806
1982 1982-01-04 25.821 19,8006
1983 1983-04-10 20.061 8,1906
1984 1983-12-04 19.651 8,2506
1985 1985-02-02 14.421 5,4306
1986 1986-02-18 8.111 2,8806
1987 1987-03-01 20.691 8,7206
1988 1988-01-21 12.311 4,2906
1989 1989-03-06 21.201 8,9906
1990 1990-02-17 26.061 20,6006
1991 1991-03-30 18.931 8,0606
?
  Peak Gage-Height Qualification Codes.
?
  Peak Streamflow Qualification Codes.